sensor_id;sensor_type;location;lat;lon;timestamp;pressure;altitude;pressure_sealevel;temperature;humidity
39455;BME280;25155;41.890;23.446;2023-06-10T00:02:13;91557.50;;;17.85;62.57
39455;BME280;25155;41.890;23.446;2023-06-10T00:04:44;91548.84;;;17.85;62.88
39455;BME280;25155;41.890;23.446;2023-06-10T00:07:11;91549.31;;;17.78;63.77
39455;BME280;25155;41.890;23.446;2023-06-10T00:09:38;91541.13;;;17.62;64.21
39455;BME280;25155;41.890;23.446;2023-06-10T00:12:08;91539.63;;;17.52;64.83
39455;BME280;25155;41.890;23.446;2023-06-10T00:14:37;91552.97;;;17.56;64.12
39455;BME280;25155;41.890;23.446;2023-06-10T00:17:05;91548.00;;;17.55;64.79
39455;BME280;25155;41.890;23.446;2023-06-10T00:19:35;91555.44;;;17.52;64.60
39455;BME280;25155;41.890;23.446;2023-06-10T00:22:06;91546.13;;;17.55;64.38
39455;BME280;25155;41.890;23.446;2023-06-10T00:24:36;91539.47;;;17.58;63.96
39455;BME280;25155;41.890;23.446;2023-06-10T00:27:04;91536.97;;;17.61;63.79
39455;BME280;25155;41.890;23.446;2023-06-10T00:29:33;91530.28;;;17.64;63.80
39455;BME280;25155;41.890;23.446;2023-06-10T00:32:00;91533.88;;;17.59;64.44
39455;BME280;25155;41.890;23.446;2023-06-10T00:34:27;91539.16;;;17.59;64.08
39455;BME280;25155;41.890;23.446;2023-06-10T00:36:54;91549.84;;;17.54;64.96
39455;BME280;25155;41.890;23.446;2023-06-10T00:39:23;91544.44;;;17.50;64.83
39455;BME280;25155;41.890;23.446;2023-06-10T00:41:50;91549.84;;;17.54;64.48
39455;BME280;25155;41.890;23.446;2023-06-10T00:44:17;91549.09;;;17.53;64.45
39455;BME280;25155;41.890;23.446;2023-06-10T00:46:45;91555.91;;;17.55;64.18
39455;BME280;25155;41.890;23.446;2023-06-10T00:49:12;91557.94;;;17.58;63.94
39455;BME280;25155;41.890;23.446;2023-06-10T00:51:40;91560.56;;;17.58;63.75
39455;BME280;25155;41.890;23.446;2023-06-10T00:54:08;91566.59;;;17.58;63.50
39455;BME280;25155;41.890;23.446;2023-06-10T00:56:36;91566.47;;;17.55;63.59
39455;BME280;25155;41.890;23.446;2023-06-10T00:59:04;91570.47;;;17.52;63.48
39455;BME280;25155;41.890;23.446;2023-06-10T01:01:31;91570.66;;;17.47;63.28
39455;BME280;25155;41.890;23.446;2023-06-10T01:03:59;91565.25;;;17.43;63.56
39455;BME280;25155;41.890;23.446;2023-06-10T01:06:32;91567.41;;;17.41;63.47
39455;BME280;25155;41.890;23.446;2023-06-10T01:09:08;91568.34;;;17.37;63.64
39455;BME280;25155;41.890;23.446;2023-06-10T01:11:44;91568.84;;;17.21;64.74
39455;BME280;25155;41.890;23.446;2023-06-10T01:14:13;91562.31;;;17.19;64.57
39455;BME280;25155;41.890;23.446;2023-06-10T01:16:41;91565.59;;;17.15;64.54
39455;BME280;25155;41.890;23.446;2023-06-10T01:19:08;91560.63;;;17.14;64.53
39455;BME280;25155;41.890;23.446;2023-06-10T01:21:39;91558.59;;;17.11;64.01
39455;BME280;25155;41.890;23.446;2023-06-10T01:24:07;91562.81;;;17.12;63.81
39455;BME280;25155;41.890;23.446;2023-06-10T01:26:36;91559.41;;;17.11;63.85
39455;BME280;25155;41.890;23.446;2023-06-10T01:29:07;91560.94;;;17.12;63.72
39455;BME280;25155;41.890;23.446;2023-06-10T01:31:41;91563.56;;;17.12;63.61
39455;BME280;25155;41.890;23.446;2023-06-10T01:34:14;91561.53;;;17.09;64.65
39455;BME280;25155;41.890;23.446;2023-06-10T01:36:46;91559.06;;;17.04;64.64
39455;BME280;25155;41.890;23.446;2023-06-10T01:39:15;91566.38;;;17.07;64.39
39455;BME280;25155;41.890;23.446;2023-06-10T01:41:44;91558.47;;;17.07;64.26
39455;BME280;25155;41.890;23.446;2023-06-10T01:44:12;91556.13;;;17.06;63.96
39455;BME280;25155;41.890;23.446;2023-06-10T01:46:44;91553.19;;;17.07;63.92
39455;BME280;25155;41.890;23.446;2023-06-10T01:49:12;91554.75;;;17.08;64.01
39455;BME280;25155;41.890;23.446;2023-06-10T01:51:40;91557.84;;;17.10;63.94
39455;BME280;25155;41.890;23.446;2023-06-10T01:54:08;91561.53;;;17.09;63.97
39455;BME280;25155;41.890;23.446;2023-06-10T01:56:35;91563.41;;;17.09;64.20
39455;BME280;25155;41.890;23.446;2023-06-10T01:59:03;91562.66;;;17.08;64.33
39455;BME280;25155;41.890;23.446;2023-06-10T02:01:31;91552.72;;;17.05;64.43
39455;BME280;25155;41.890;23.446;2023-06-10T02:03:58;91558.94;;;17.01;64.92
39455;BME280;25155;41.890;23.446;2023-06-10T02:06:25;91561.88;;;16.99;64.83
39455;BME280;25155;41.890;23.446;2023-06-10T02:08:53;91549.94;;;16.93;65.91
39455;BME280;25155;41.890;23.446;2023-06-10T02:11:22;91559.53;;;16.80;65.62
39455;BME280;25155;41.890;23.446;2023-06-10T02:13:49;91555.66;;;16.77;66.03
39455;BME280;25155;41.890;23.446;2023-06-10T02:16:17;91558.44;;;16.72;65.65
39455;BME280;25155;41.890;23.446;2023-06-10T02:18:44;91562.44;;;16.70;65.91
39455;BME280;25155;41.890;23.446;2023-06-10T02:21:12;91552.25;;;16.68;65.91
39455;BME280;25155;41.890;23.446;2023-06-10T02:23:39;91554.53;;;16.70;65.75
39455;BME280;25155;41.890;23.446;2023-06-10T02:26:06;91550.06;;;16.70;66.12
39455;BME280;25155;41.890;23.446;2023-06-10T02:28:35;91551.91;;;16.70;65.94
39455;BME280;25155;41.890;23.446;2023-06-10T02:31:02;91548.50;;;16.69;65.82
39455;BME280;25155;41.890;23.446;2023-06-10T02:33:29;91551.16;;;16.69;66.12
39455;BME280;25155;41.890;23.446;2023-06-10T02:35:57;91554.53;;;16.70;66.15
39455;BME280;25155;41.890;23.446;2023-06-10T02:38:24;91554.25;;;16.71;65.88
39455;BME280;25155;41.890;23.446;2023-06-10T02:40:51;91557.06;;;16.75;65.69
39455;BME280;25155;41.890;23.446;2023-06-10T02:43:18;91553.31;;;16.76;65.67
39455;BME280;25155;41.890;23.446;2023-06-10T02:45:47;91557.97;;;16.79;65.80
39455;BME280;25155;41.890;23.446;2023-06-10T02:48:14;91558.13;;;16.83;65.66
39455;BME280;25155;41.890;23.446;2023-06-10T02:50:41;91564.19;;;16.83;65.41
39455;BME280;25155;41.890;23.446;2023-06-10T02:53:08;91558.91;;;16.83;65.42
39455;BME280;25155;41.890;23.446;2023-06-10T02:55:35;91560.75;;;16.83;65.24
39455;BME280;25155;41.890;23.446;2023-06-10T02:58:03;91553.97;;;16.82;65.61
39455;BME280;25155;41.890;23.446;2023-06-10T03:00:31;91556.41;;;16.78;65.14
39455;BME280;25155;41.890;23.446;2023-06-10T03:03:00;91562.47;;;16.78;65.66
39455;BME280;25155;41.890;23.446;2023-06-10T03:05:29;91557.97;;;16.79;65.54
39455;BME280;25155;41.890;23.446;2023-06-10T03:07:56;91553.78;;;16.78;65.30
39455;BME280;25155;41.890;23.446;2023-06-10T03:10:24;91556.75;;;16.76;65.69
39455;BME280;25155;41.890;23.446;2023-06-10T03:12:52;91555.81;;;16.72;66.03
39455;BME280;25155;41.890;23.446;2023-06-10T03:15:19;91555.34;;;16.70;65.82
39455;BME280;25155;41.890;23.446;2023-06-10T03:17:47;91560.16;;;16.68;65.59
39455;BME280;25155;41.890;23.446;2023-06-10T03:20:16;91548.22;;;16.62;65.79
39455;BME280;25155;41.890;23.446;2023-06-10T03:22:43;91553.63;;;16.66;65.75
39455;BME280;25155;41.890;23.446;2023-06-10T03:25:10;91557.03;;;16.66;65.62
39455;BME280;25155;41.890;23.446;2023-06-10T03:27:39;91561.84;;;16.64;65.43
39455;BME280;25155;41.890;23.446;2023-06-10T03:30:07;91565.53;;;16.63;65.52
39455;BME280;25155;41.890;23.446;2023-06-10T03:32:35;91564.47;;;16.64;65.55
39455;BME280;25155;41.890;23.446;2023-06-10T03:35:02;91566.19;;;16.60;65.73
39455;BME280;25155;41.890;23.446;2023-06-10T03:37:31;91566.00;;;16.56;65.43
39455;BME280;25155;41.890;23.446;2023-06-10T03:39:59;91568.94;;;16.55;65.64
39455;BME280;25155;41.890;23.446;2023-06-10T03:42:26;91566.63;;;16.53;66.33
39455;BME280;25155;41.890;23.446;2023-06-10T03:44:53;91562.75;;;16.51;66.52
39455;BME280;25155;41.890;23.446;2023-06-10T03:47:20;91568.78;;;16.51;66.35
39455;BME280;25155;41.890;23.446;2023-06-10T03:49:47;91559.34;;;16.50;65.98
39455;BME280;25155;41.890;23.446;2023-06-10T03:52:15;91565.38;;;16.51;65.78
39455;BME280;25155;41.890;23.446;2023-06-10T03:54:43;91569.09;;;16.50;65.69
39455;BME280;25155;41.890;23.446;2023-06-10T03:57:11;91566.44;;;16.50;65.76
39455;BME280;25155;41.890;23.446;2023-06-10T03:59:38;91569.56;;;16.52;65.73
39455;BME280;25155;41.890;23.446;2023-06-10T04:02:05;91572.66;;;16.54;65.42
39455;BME280;25155;41.890;23.446;2023-06-10T04:04:34;91570.03;;;16.54;65.53
39455;BME280;25155;41.890;23.446;2023-06-10T04:07:03;91567.41;;;16.54;65.67
39455;BME280;25155;41.890;23.446;2023-06-10T04:09:30;91573.13;;;16.56;65.76
39455;BME280;25155;41.890;23.446;2023-06-10T04:11:59;91570.50;;;16.56;65.73
39455;BME280;25155;41.890;23.446;2023-06-10T04:14:27;91569.72;;;16.55;66.39
39455;BME280;25155;41.890;23.446;2023-06-10T04:16:54;91563.50;;;16.51;67.71
39455;BME280;25155;41.890;23.446;2023-06-10T04:19:22;91562.91;;;16.46;68.05
39455;BME280;25155;41.890;23.446;2023-06-10T04:21:49;91561.78;;;16.47;67.54
39455;BME280;25155;41.890;23.446;2023-06-10T04:24:16;91563.34;;;16.48;67.95
39455;BME280;25155;41.890;23.446;2023-06-10T04:26:43;91556.53;;;16.47;68.31
39455;BME280;25155;41.890;23.446;2023-06-10T04:29:12;91558.88;;;16.48;68.82
39455;BME280;25155;41.890;23.446;2023-06-10T04:31:39;91555.31;;;16.53;68.49
39455;BME280;25155;41.890;23.446;2023-06-10T04:34:06;91561.19;;;16.50;69.86
39455;BME280;25155;41.890;23.446;2023-06-10T04:36:34;91557.94;;;16.44;70.73
39455;BME280;25155;41.890;23.446;2023-06-10T04:39:01;91559.97;;;16.38;71.49
39455;BME280;25155;41.890;23.446;2023-06-10T04:41:28;91556.06;;;16.36;71.25
39455;BME280;25155;41.890;23.446;2023-06-10T04:43:55;91566.91;;;16.34;71.43
39455;BME280;25155;41.890;23.446;2023-06-10T04:46:24;91560.56;;;16.35;71.78
39455;BME280;25155;41.890;23.446;2023-06-10T04:48:52;91565.81;;;16.35;72.01
39455;BME280;25155;41.890;23.446;2023-06-10T04:51:20;91564.41;;;16.29;72.37
39455;BME280;25155;41.890;23.446;2023-06-10T04:53:47;91565.03;;;16.35;72.16
39455;BME280;25155;41.890;23.446;2023-06-10T04:56:17;91561.50;;;16.39;71.61
39455;BME280;25155;41.890;23.446;2023-06-10T04:58:45;91565.97;;;16.39;72.70
39455;BME280;25155;41.890;23.446;2023-06-10T05:01:13;91563.50;;;16.42;72.58
39455;BME280;25155;41.890;23.446;2023-06-10T05:03:41;91570.78;;;16.46;72.92
39455;BME280;25155;41.890;23.446;2023-06-10T05:06:09;91572.50;;;16.50;72.35
39455;BME280;25155;41.890;23.446;2023-06-10T05:08:36;91568.31;;;16.58;71.81
39455;BME280;25155;41.890;23.446;2023-06-10T05:11:03;91566.34;;;16.64;71.70
39455;BME280;25155;41.890;23.446;2023-06-10T05:13:30;91559.03;;;16.69;72.40
39455;BME280;25155;41.890;23.446;2023-06-10T05:15:58;91559.81;;;16.70;72.37
39455;BME280;25155;41.890;23.446;2023-06-10T05:18:25;91564.31;;;16.69;72.90
39455;BME280;25155;41.890;23.446;2023-06-10T05:20:54;91564.31;;;16.69;73.12
39455;BME280;25155;41.890;23.446;2023-06-10T05:23:21;91557.06;;;16.75;73.44
39455;BME280;25155;41.890;23.446;2023-06-10T05:25:48;91558.13;;;16.83;72.75
39455;BME280;25155;41.890;23.446;2023-06-10T05:28:16;91556.91;;;16.89;73.36
39455;BME280;25155;41.890;23.446;2023-06-10T05:30:44;91554.13;;;16.94;73.32
39455;BME280;25155;41.890;23.446;2023-06-10T05:33:11;91551.94;;;16.96;72.47
39455;BME280;25155;41.890;23.446;2023-06-10T05:35:38;91553.66;;;17.01;71.64
39455;BME280;25155;41.890;23.446;2023-06-10T05:38:08;91546.38;;;17.06;71.25
39455;BME280;25155;41.890;23.446;2023-06-10T05:40:35;91547.75;;;17.21;70.56
39455;BME280;25155;41.890;23.446;2023-06-10T05:43:03;91548.66;;;17.34;70.22
39455;BME280;25155;41.890;23.446;2023-06-10T05:45:30;91548.03;;;17.37;71.75
39455;BME280;25155;41.890;23.446;2023-06-10T05:47:57;91550.03;;;17.40;70.80
39455;BME280;25155;41.890;23.446;2023-06-10T05:50:24;91557.94;;;17.49;70.04
39455;BME280;25155;41.890;23.446;2023-06-10T05:52:51;91551.09;;;17.57;69.52
39455;BME280;25155;41.890;23.446;2023-06-10T05:55:21;91542.38;;;17.65;69.17
39455;BME280;25155;41.890;23.446;2023-06-10T05:57:58;91536.31;;;17.73;68.80
39455;BME280;25155;41.890;23.446;2023-06-10T06:00:26;91540.59;;;17.86;67.91
39455;BME280;25155;41.890;23.446;2023-06-10T06:02:53;91534.69;;;17.98;68.19
39455;BME280;25155;41.890;23.446;2023-06-10T06:05:23;91532.47;;;18.09;67.40
39455;BME280;25155;41.890;23.446;2023-06-10T06:07:50;91524.81;;;18.16;68.19
39455;BME280;25155;41.890;23.446;2023-06-10T06:10:18;91520.91;;;18.22;67.56
39455;BME280;25155;41.890;23.446;2023-06-10T06:12:47;91525.38;;;18.31;67.65
39455;BME280;25155;41.890;23.446;2023-06-10T06:15:14;91529.03;;;18.38;68.24
39455;BME280;25155;41.890;23.446;2023-06-10T06:17:41;91531.63;;;18.47;67.70
39455;BME280;25155;41.890;23.446;2023-06-10T06:20:09;91524.53;;;18.60;67.77
39455;BME280;25155;41.890;23.446;2023-06-10T06:22:36;91524.94;;;18.71;67.43
39455;BME280;25155;41.890;23.446;2023-06-10T06:25:05;91519.25;;;18.81;66.85
39455;BME280;25155;41.890;23.446;2023-06-10T06:27:32;91516.25;;;18.91;66.99
39455;BME280;25155;41.890;23.446;2023-06-10T06:30:01;91516.31;;;19.04;66.08
39455;BME280;25155;41.890;23.446;2023-06-10T06:32:28;91512.19;;;19.15;64.99
39455;BME280;25155;41.890;23.446;2023-06-10T06:34:55;91514.28;;;19.22;63.27
39455;BME280;25155;41.890;23.446;2023-06-10T06:37:23;91510.31;;;19.28;63.70
39455;BME280;25155;41.890;23.446;2023-06-10T06:39:51;91511.91;;;19.41;63.83
39455;BME280;25155;41.890;23.446;2023-06-10T06:42:19;91507.09;;;19.55;63.96
39455;BME280;25155;41.890;23.446;2023-06-10T06:44:47;91512.41;;;19.68;62.01
39455;BME280;25155;41.890;23.446;2023-06-10T06:47:15;91501.75;;;19.77;60.37
39455;BME280;25155;41.890;23.446;2023-06-10T06:49:45;91498.78;;;19.90;61.45
39455;BME280;25155;41.890;23.446;2023-06-10T06:52:12;91493.03;;;20.01;61.01
39455;BME280;25155;41.890;23.446;2023-06-10T06:54:40;91488.84;;;20.12;61.05
39455;BME280;25155;41.890;23.446;2023-06-10T06:57:07;91483.13;;;20.22;60.80
39455;BME280;25155;41.890;23.446;2023-06-10T06:59:35;91483.09;;;20.35;60.54
39455;BME280;25155;41.890;23.446;2023-06-10T07:02:02;91482.97;;;20.43;59.91
39455;BME280;25155;41.890;23.446;2023-06-10T07:04:31;91481.63;;;20.50;59.06
39455;BME280;25155;41.890;23.446;2023-06-10T07:06:59;91475.66;;;20.65;59.38
39455;BME280;25155;41.890;23.446;2023-06-10T07:09:26;91470.34;;;20.77;60.05
39455;BME280;25155;41.890;23.446;2023-06-10T07:11:53;91474.28;;;20.83;58.01
39455;BME280;25155;41.890;23.446;2023-06-10T07:14:21;91472.69;;;20.95;58.06
39455;BME280;25155;41.890;23.446;2023-06-10T07:16:48;91472.13;;;21.01;57.06
39455;BME280;25155;41.890;23.446;2023-06-10T07:19:15;91482.59;;;21.10;56.82
39455;BME280;25155;41.890;23.446;2023-06-10T07:21:44;91471.56;;;21.24;56.92
39455;BME280;25155;41.890;23.446;2023-06-10T07:24:11;91461.47;;;21.30;56.18
39455;BME280;25155;41.890;23.446;2023-06-10T07:26:38;91464.13;;;21.30;54.02
39455;BME280;25155;41.890;23.446;2023-06-10T07:29:05;91461.06;;;21.28;54.49
39455;BME280;25155;41.890;23.446;2023-06-10T07:31:33;91457.47;;;21.36;55.33
39455;BME280;25155;41.890;23.446;2023-06-10T07:34:00;91465.19;;;21.41;54.80
39455;BME280;25155;41.890;23.446;2023-06-10T07:36:27;91456.31;;;21.49;53.95
39455;BME280;25155;41.890;23.446;2023-06-10T07:38:57;91464.09;;;21.58;54.61
39455;BME280;25155;41.890;23.446;2023-06-10T07:41:24;91440.31;;;21.78;55.22
39455;BME280;25155;41.890;23.446;2023-06-10T07:43:52;91441.41;;;21.92;55.12
39455;BME280;25155;41.890;23.446;2023-06-10T07:46:20;91444.13;;;22.12;52.68
39455;BME280;25155;41.890;23.446;2023-06-10T07:48:48;91438.28;;;22.22;52.36
39455;BME280;25155;41.890;23.446;2023-06-10T07:51:16;91441.56;;;22.32;53.13
39455;BME280;25155;41.890;23.446;2023-06-10T07:53:43;91435.69;;;22.42;54.01
39455;BME280;25155;41.890;23.446;2023-06-10T07:56:14;91430.44;;;22.45;52.00
39455;BME280;25155;41.890;23.446;2023-06-10T07:58:41;91433.03;;;22.42;51.37
39455;BME280;25155;41.890;23.446;2023-06-10T08:01:09;91429.75;;;22.48;51.40
39455;BME280;25155;41.890;23.446;2023-06-10T08:03:36;91430.75;;;22.60;51.83
39455;BME280;25155;41.890;23.446;2023-06-10T08:06:04;91420.94;;;22.64;51.05
39455;BME280;25155;41.890;23.446;2023-06-10T08:08:31;91422.28;;;22.74;51.92
39455;BME280;25155;41.890;23.446;2023-06-10T08:10:58;91414.59;;;22.88;52.01
39455;BME280;25155;41.890;23.446;2023-06-10T08:13:27;91421.28;;;23.01;52.24
39455;BME280;25155;41.890;23.446;2023-06-10T08:15:54;91419.03;;;23.23;52.18
39455;BME280;25155;41.890;23.446;2023-06-10T08:18:21;91412.13;;;23.42;52.05
39455;BME280;25155;41.890;23.446;2023-06-10T08:20:49;91407.06;;;23.56;51.59
39455;BME280;25155;41.890;23.446;2023-06-10T08:23:16;91406.50;;;23.70;51.88
39455;BME280;25155;41.890;23.446;2023-06-10T08:25:45;91409.53;;;23.68;49.81
39455;BME280;25155;41.890;23.446;2023-06-10T08:28:12;91411.59;;;23.79;49.43
39455;BME280;25155;41.890;23.446;2023-06-10T08:30:41;91410.31;;;23.92;51.11
39455;BME280;25155;41.890;23.446;2023-06-10T08:33:08;91410.16;;;24.08;50.07
39455;BME280;25155;41.890;23.446;2023-06-10T08:35:35;91407.59;;;24.15;49.64
39455;BME280;25155;41.890;23.446;2023-06-10T08:38:03;91403.91;;;24.23;50.14
39455;BME280;25155;41.890;23.446;2023-06-10T08:40:30;91410.44;;;24.29;50.07
39455;BME280;25155;41.890;23.446;2023-06-10T08:43:03;91413.56;;;24.35;50.03
39455;BME280;25155;41.890;23.446;2023-06-10T08:45:36;91412.06;;;24.38;48.83
39455;BME280;25155;41.890;23.446;2023-06-10T08:48:06;91409.31;;;24.30;49.09
39455;BME280;25155;41.890;23.446;2023-06-10T08:50:35;91409.28;;;24.27;49.14
39455;BME280;25155;41.890;23.446;2023-06-10T08:53:05;91403.22;;;24.30;49.53
39455;BME280;25155;41.890;23.446;2023-06-10T08:55:35;91395.84;;;24.46;50.64
39455;BME280;25155;41.890;23.446;2023-06-10T08:58:03;91396.66;;;24.54;48.38
39455;BME280;25155;41.890;23.446;2023-06-10T09:00:31;91392.66;;;24.67;48.44
39455;BME280;25155;41.890;23.446;2023-06-10T09:02:59;91396.97;;;24.76;46.50
39455;BME280;25155;41.890;23.446;2023-06-10T09:05:29;91385.94;;;24.77;47.73
39455;BME280;25155;41.890;23.446;2023-06-10T09:07:57;91379.53;;;24.85;48.72
39455;BME280;25155;41.890;23.446;2023-06-10T09:10:26;91380.50;;;25.04;49.54
39455;BME280;25155;41.890;23.446;2023-06-10T09:12:53;91379.84;;;25.14;47.08
39455;BME280;25155;41.890;23.446;2023-06-10T09:15:21;91377.59;;;25.16;46.86
39455;BME280;25155;41.890;23.446;2023-06-10T09:17:48;91383.31;;;25.18;46.67
39455;BME280;25155;41.890;23.446;2023-06-10T09:20:17;91384.84;;;25.19;47.24
39455;BME280;25155;41.890;23.446;2023-06-10T09:22:47;91384.53;;;25.24;48.15
39455;BME280;25155;41.890;23.446;2023-06-10T09:25:15;91372.41;;;25.31;45.89
39455;BME280;25155;41.890;23.446;2023-06-10T09:27:46;91380.00;;;25.29;45.92
39455;BME280;25155;41.890;23.446;2023-06-10T09:30:25;91370.88;;;25.30;46.29
39455;BME280;25155;41.890;23.446;2023-06-10T09:32:53;91374.75;;;25.36;46.30
39455;BME280;25155;41.890;23.446;2023-06-10T09:35:22;91375.97;;;25.46;46.77
39455;BME280;25155;41.890;23.446;2023-06-10T09:37:52;91371.09;;;25.58;47.74
39455;BME280;25155;41.890;23.446;2023-06-10T09:40:20;91369.72;;;25.75;47.89
39455;BME280;25155;41.890;23.446;2023-06-10T09:42:53;91372.06;;;25.81;46.09
39455;BME280;25155;41.890;23.446;2023-06-10T09:45:21;91370.50;;;25.79;46.57
39455;BME280;25155;41.890;23.446;2023-06-10T09:47:52;91371.59;;;25.71;44.87
39455;BME280;25155;41.890;23.446;2023-06-10T09:50:21;91361.84;;;25.45;42.62
39455;BME280;25155;41.890;23.446;2023-06-10T09:52:52;91354.84;;;25.30;43.69
39455;BME280;25155;41.890;23.446;2023-06-10T09:55:19;91364.97;;;25.13;44.25
39455;BME280;25155;41.890;23.446;2023-06-10T09:57:49;91366.44;;;25.07;44.19
39455;BME280;25155;41.890;23.446;2023-06-10T10:00:22;91357.66;;;25.07;44.49
39455;BME280;25155;41.890;23.446;2023-06-10T10:02:52;91356.72;;;25.26;47.05
39455;BME280;25155;41.890;23.446;2023-06-10T10:05:21;91353.44;;;25.43;48.00
39455;BME280;25155;41.890;23.446;2023-06-10T10:07:49;91369.50;;;25.50;47.48
39455;BME280;25155;41.890;23.446;2023-06-10T10:10:19;91374.44;;;25.45;47.53
39455;BME280;25155;41.890;23.446;2023-06-10T10:12:48;91372.47;;;25.38;47.69
39455;BME280;25155;41.890;23.446;2023-06-10T10:15:17;91368.97;;;25.30;48.03
39455;BME280;25155;41.890;23.446;2023-06-10T10:17:49;91365.16;;;25.28;48.05
39455;BME280;25155;41.890;23.446;2023-06-10T10:20:24;91360.94;;;25.27;48.38
39455;BME280;25155;41.890;23.446;2023-06-10T10:22:56;91370.81;;;25.26;47.70
39455;BME280;25155;41.890;23.446;2023-06-10T10:25:27;91370.00;;;25.22;48.25
39455;BME280;25155;41.890;23.446;2023-06-10T10:27:58;91368.13;;;25.22;47.63
39455;BME280;25155;41.890;23.446;2023-06-10T10:30:28;91366.22;;;25.23;49.89
39455;BME280;25155;41.890;23.446;2023-06-10T10:32:57;91374.59;;;25.25;49.48
39455;BME280;25155;41.890;23.446;2023-06-10T10:35:26;91369.72;;;24.93;50.31
39455;BME280;25155;41.890;23.446;2023-06-10T10:37:55;91373.84;;;25.24;51.06
39455;BME280;25155;41.890;23.446;2023-06-10T10:40:23;91371.75;;;25.41;51.70
39455;BME280;25155;41.890;23.446;2023-06-10T10:42:52;91373.72;;;25.51;52.04
39455;BME280;25155;41.890;23.446;2023-06-10T10:45:22;91376.53;;;25.66;50.14
39455;BME280;25155;41.890;23.446;2023-06-10T10:47:52;91380.28;;;25.57;49.11
39455;BME280;25155;41.890;23.446;2023-06-10T10:50:21;91377.53;;;25.50;48.53
39455;BME280;25155;41.890;23.446;2023-06-10T10:52:53;91386.94;;;25.37;49.12
39455;BME280;25155;41.890;23.446;2023-06-10T10:55:22;91388.38;;;25.27;48.59
39455;BME280;25155;41.890;23.446;2023-06-10T10:57:58;91398.91;;;25.13;48.72
39455;BME280;25155;41.890;23.446;2023-06-10T11:00:29;91400.72;;;25.05;48.28
39455;BME280;25155;41.890;23.446;2023-06-10T11:03:00;91396.13;;;24.68;49.38
39455;BME280;25155;41.890;23.446;2023-06-10T11:05:35;91398.19;;;24.82;49.56
39455;BME280;25155;41.890;23.446;2023-06-10T11:08:03;91396.19;;;24.75;49.71
39455;BME280;25155;41.890;23.446;2023-06-10T11:10:31;91412.16;;;24.72;49.42
39455;BME280;25155;41.890;23.446;2023-06-10T11:13:04;91405.16;;;24.60;50.00
39455;BME280;25155;41.890;23.446;2023-06-10T11:15:32;91416.63;;;24.64;49.88
39455;BME280;25155;41.890;23.446;2023-06-10T11:18:23;91419.56;;;24.55;50.17
39455;BME280;25155;41.890;23.446;2023-06-10T11:20:53;91416.47;;;24.53;50.05
39455;BME280;25155;41.890;23.446;2023-06-10T11:23:48;91419.72;;;24.39;50.81
39455;BME280;25155;41.890;23.446;2023-06-10T11:26:22;91425.47;;;24.41;50.11
39455;BME280;25155;41.890;23.446;2023-06-10T11:29:17;91426.06;;;24.31;50.11
39455;BME280;25155;41.890;23.446;2023-06-10T11:31:49;91429.88;;;24.30;49.75
39455;BME280;25155;41.890;23.446;2023-06-10T11:34:21;91439.53;;;24.11;49.05
39455;BME280;25155;41.890;23.446;2023-06-10T11:36:51;91435.22;;;24.03;48.99
39455;BME280;25155;41.890;23.446;2023-06-10T11:39:21;91429.34;;;23.94;49.40
39455;BME280;25155;41.890;23.446;2023-06-10T11:41:50;91437.69;;;23.92;49.51
39455;BME280;25155;41.890;23.446;2023-06-10T11:44:19;91429.53;;;23.82;50.10
39455;BME280;25155;41.890;23.446;2023-06-10T11:46:48;91432.28;;;23.85;50.46
39455;BME280;25155;41.890;23.446;2023-06-10T11:49:15;91432.31;;;23.89;50.00
39455;BME280;25155;41.890;23.446;2023-06-10T11:51:42;91429.22;;;23.83;50.24
39455;BME280;25155;41.890;23.446;2023-06-10T11:54:15;91417.63;;;23.75;50.26
39455;BME280;25155;41.890;23.446;2023-06-10T11:56:42;91419.91;;;23.73;50.17
39455;BME280;25155;41.890;23.446;2023-06-10T11:59:10;91421.41;;;23.74;50.23
39455;BME280;25155;41.890;23.446;2023-06-10T12:01:43;91422.91;;;23.72;50.38
39455;BME280;25155;41.890;23.446;2023-06-10T12:04:15;91417.53;;;23.68;49.77
39455;BME280;25155;41.890;23.446;2023-06-10T12:06:46;91421.72;;;23.69;50.62
39455;BME280;25155;41.890;23.446;2023-06-10T12:09:18;91421.31;;;23.67;51.30
39455;BME280;25155;41.890;23.446;2023-06-10T12:11:48;91421.31;;;23.67;51.79
39455;BME280;25155;41.890;23.446;2023-06-10T12:14:15;91426.63;;;23.67;52.20
39455;BME280;25155;41.890;23.446;2023-06-10T12:16:49;91429.59;;;23.62;52.09
39455;BME280;25155;41.890;23.446;2023-06-10T12:19:16;91430.31;;;23.59;51.55
39455;BME280;25155;41.890;23.446;2023-06-10T12:21:44;91432.91;;;23.55;51.70
39455;BME280;25155;41.890;23.446;2023-06-10T12:24:12;91434.31;;;23.49;52.24
39455;BME280;25155;41.890;23.446;2023-06-10T12:26:41;91437.63;;;23.43;53.19
39455;BME280;25155;41.890;23.446;2023-06-10T12:29:16;91428.97;;;23.26;54.97
39455;BME280;25155;41.890;23.446;2023-06-10T12:31:59;91436.69;;;23.12;56.29
39455;BME280;25155;41.890;23.446;2023-06-10T12:34:30;91424.34;;;23.03;57.19
39455;BME280;25155;41.890;23.446;2023-06-10T12:36:57;91424.78;;;23.06;57.42
39455;BME280;25155;41.890;23.446;2023-06-10T12:39:24;91410.94;;;22.96;59.52
39455;BME280;25155;41.890;23.446;2023-06-10T12:41:51;91415.22;;;23.01;59.90
39455;BME280;25155;41.890;23.446;2023-06-10T12:44:28;91406.88;;;23.02;60.81
39455;BME280;25155;41.890;23.446;2023-06-10T12:46:55;91413.19;;;23.14;61.84
39455;BME280;25155;41.890;23.446;2023-06-10T12:49:24;91410.78;;;23.28;60.86
39455;BME280;25155;41.890;23.446;2023-06-10T12:51:52;91412.63;;;23.47;60.65
39455;BME280;25155;41.890;23.446;2023-06-10T12:54:19;91412.38;;;23.56;59.01
39455;BME280;25155;41.890;23.446;2023-06-10T12:56:46;91421.72;;;23.69;58.29
39455;BME280;25155;41.890;23.446;2023-06-10T12:59:13;91423.56;;;23.65;55.23